KCLW/CLW METAR and TAF weather

Enter ICAO airport designator
Station Type Date Time Source
KCLW METAR 2019/12/13 22:35 UTC NOAA

KCLW 132235Z AUTO 19006KT 10SM CLR 20/20 A2984 RMK AO2


Station Type Date Time Source
KCLW Decoded METAR 2019/12/13 22:35 UTC NOAA

Station name not available
Dec 13, 2019 - 05:35 PM EST / 2019.12.13 2235 UTC
Wind: from the S (190 degrees) at 7 MPH (6 KT):0
Visibility: 10 mile(s):0
Sky conditions: clear
Temperature: 68 F (20 C)
Dew Point: 68 F (20 C)
Relative Humidity: 100%
Pressure (altimeter): 29.84 in. Hg (1010 hPa)
ob: KCLW 132235Z AUTO 19006KT 10SM CLR 20/20 A2984 RMK AO2
cycle: 22

Station Type Date Time Source
KCLW TAF UTC NOAA

Error!

Example: see airport list